Etusivu
METAR-TAF:

METAR-TAF

Lentoasemat :

Chugiak, Alaska, Yhdysvallat

Leveyspiiri: 61-25N, Pituuspiiri: 149-31W, korkeus merenpinnasta: 29 m

Tämänhetkinen sää

Tämä raportti tehtiin 22 minuuttia sitten, kello 13.56 UTC
Tuuli 6 kn idästä/kaakosta
Lämpötila 1°C
Kosteus 51%
Ilmanpaine 1031 hPa
Näkyvyys: 16.1 km
selkeää

METAR: PABV 161356Z AUTO 12006KT 10SM CLR 01/M08 A3045 RMK AO2 SLP317 T00061083 FZRANO

Aika: 06:18 (14:18 UTC)


TAF: puuttuu

Säähavainnot ja -ennusteet yli 4000 lentoasemalta (METAR- ja TAF-raportit).

Käytössä olevat sääasemat on merkitty karttaan keltaisilla ja punaisilla pisteillä.

Aseta hiiri pisteen päälle nähdäksesi sääaseman nimen.

Klikkaa sitten nähdäksesi säähavainnot ja -ennusteet.

Kartan vaihtaminen: klikkaa mustalla rastilla varustettuja vihreitä pisteitä, niin voit zoomata sisään; viivalla varustettua vihreää pistettä, niin voit zoomata ulos tai vihreitä nuolia, niin pääset viereisille kartoille.


METAR-TAF: